Hit Tracker is now ESPN Home Run Tracker! Hit Tracker founder Greg Rybarczyk is now collaborating with the ESPN Stats & Information Group to continue tracking all MLB home runs, and helping baseball fans know "How Far It Really Went!™" Please credit any information on this site to ESPN Stats & Information Group. For more information and analysis on home runs, please contact founder Greg Rybarczyk. E-Mail ESPN Home Run Tracker
Main Page | Ballparks | Park Overlays | Glossary | Highlight Homers | Feedback | Bio | 3 Types of HR's | AAA Home Run Derby Last Updated: August 28, 2016, 9:17 pm PST
If you want to know "How Far It Really Went!", then you've come to the right place! Welcome to the ESPN Home Run Tracker, where you can find accurate, transparently verifiable distances for every home run hit in MLB games. Please also check out the ESPN MLB Scoreboard throughout the 2016 season! Contact us at grybar@hittrackeronline.com.
Season:
Ballpark detail for Great American Ball Park
Ballpark # of Home Runs HR per game Avg.
True
Distance
Avg.
Speed
Off
Bat
Avg.
Std.
Dist.
Great American Ball Park 189 2.91 396 103 394.1

Scatter Plot of Home Runs Great American Ball Park
 Overlay Ballpark:
Without range rings   With range rings

2016 Season Home Runs for Great American Ball Park
Click headers to sort
Date Video Path Hitter Hitter
Team
Pitcher Pitcher
Team
INN ^ Ballpark Type/
Luck
True
Dist.
Speed
Off
Bat
Elev.
Angle
Horiz.
Angle
Apex Impact Due To: Std.
Dist.
#
Parks
Wind Temp. Alt.
06/28/16 Video View Baez, Javier CHC Hoover, J.J. CIN 15 Great Americ... PL 429 103.7 26.4 90.8 89 5 -1 1 423 27
05/18/16 Video View Lindor, Francisco CLE Sampson, Keyvius CIN 12 Great Americ... JE 416 107.7 20.4 87.8 63 -1 0 0 417 20
05/07/16 Video View Hill, Aaron MIL Cotham, Caleb CIN 10 Great Americ... JE 361 98.7 27.1 115.3 68 2 0 1 359 11
05/07/16 Video View Phillips, Brandon CIN Torres, Carlos MIL 10 Great Americ... JE 373 104.7 24.4 118.8 59 2 0 1 371 24
04/19/16 Video View Reynolds, Mark COL Hoover, J.J. CIN 9 Great Americ... PL 426 109.0 20.0 88.6 68 3 0 0 423 25
04/22/16 Video View Baez, Javier CHC Hoover, J.J. CIN 9 Great Americ... JE 367 109.6 20.7 117.5 48 0 0 0 367 11
05/05/16 Video View Carter, Chris MIL Hoover, J.J. CIN 9 Great Americ... PL 434 109.2 21.5 92.0 73 0 0 0 434 27
05/18/16 Video View Davis, Rajai CLE Cingrani, Tony CIN 9 Great Americ... PL 391 99.7 31.5 107.4 102 5 -1 2 385 27
05/20/16 Video View Cruz, Nelson SEA Diaz, Jumbo CIN 9 Great Americ... ND 423 108.4 28.4 114.0 90 6 -1 1 417 30
05/20/16 Video View Lee, Dae-Ho SEA Diaz, Jumbo CIN 9 Great Americ... JE 353 96.0 29.6 117.4 75 2 -1 1 351 7
06/07/16 Video View Votto, Joey CIN Siegrist, Kevin STL 9 Great Americ... PL 408 103.0 34.1 95.3 137 -1 -1 2 407 24
06/27/16 Video View Votto, Joey CIN Peralta, Joel CHC 9 Great Americ... PL 403 100.1 32.4 83.9 117 0 3 2 398 14
07/20/16 Video View Garcia, Adonis ATL Ohlendorf, Ross CIN 9 Great Americ... PL 389 98.7 30.7 76.8 98 0 3 1 386 21
07/24/16 Video View Bruce, Jay CIN Clippard, Tyler ARI 9 Great Americ... JE 351 99.0 25.6 60.4 58 1 1 1 347 3
08/02/16 Video View Schebler, Scott CIN Oh, Seung Hwan STL 9 Great Americ... ND 416 109.6 34.4 62.1 130 0 3 3 410 30
04/18/16 Video View Story, Trevor COL Ohlendorf, Ross CIN 8 Great Americ... PL 435 106.9 24.9 84.5 87 0 0 1 434 28
04/18/16 Video View Paulsen, Ben COL Diaz, Jumbo CIN 8 Great Americ... PL 422 108.4 20.5 87.4 65 0 0 0 422 26
04/07/16 Video View Ruiz, Carlos PHI Sampson, Keyvius CIN 8 Great Americ... ND 396 103.1 32.1 116.6 100 9 -5 2 390 30
04/08/16 Video View Marte, Starling PIT Hoover, J.J. CIN 8 Great Americ... PL 406 101.2 31.1 102.9 104 10 -6 1 399 30
05/05/16 Video View Duvall, Adam CIN Goforth, David MIL 8 Great Americ... JE 422 107.3 21.3 88.4 69 0 0 0 422 25
05/05/16 Video View Presley, Alex MIL Simon, Alfredo CIN 8 Great Americ... PL 407 102.3 30.2 79.1 108 0 -2 1 408 29
05/07/16 Video View Hill, Aaron MIL Ramirez, J.C. CIN 8 Great Americ... PL 398 100.2 29.0 100.3 95 -1 0 1 397 27
05/08/16 Video View Lucroy, Jonathan MIL Ohlendorf, Ross CIN 8 Great Americ... ND 397 106.2 25.9 113.5 75 0 -1 1 398 30
05/11/16 Video View Harrison, Josh PIT Cingrani, Tony CIN 8 Great Americ... PL 412 101.6 28.2 84.2 97 0 1 1 410 20
05/18/16 Video View Bruce, Jay CIN Manship, Jeff CLE 8 Great Americ... PL 416 104.3 24.2 85.0 77 0 0 0 416 22
06/03/16 Video View Duvall, Adam CIN Petit, Yusmeiro WSH 8 Great Americ... JE 398 106.8 21.9 102.3 61 0 0 0 397 18
06/04/16 Video View Espinosa, Danny WSH Ohlendorf, Ross CIN 8 Great Americ... PL 375 102.7 26.7 61.5 71 -1 0 1 374 29
06/04/16 Video View Duvall, Adam CIN Kelley, Shawn WSH 8 Great Americ... ND 407 104.4 32.8 107.3 121 0 0 2 405 30
06/08/16 Video View Peralta, Jhonny STL Ramirez, J.C. CIN 8 Great Americ... PL 398 111.8 21.0 109.1 56 0 0 0 398 30
06/12/16 Video View Valencia, Danny OAK Morris, A.J. CIN 8 Great Americ... ND 392 101.9 31.4 115.4 97 1 5 1 386 30
06/24/16 Video View Upton Jr., Melvin SD Hoover, J.J. CIN 8 Great Americ... PL 412 101.1 30.3 93.5 108 0 2 1 409 19
06/27/16 Video View Bryant, Kris CHC Ohlendorf, Ross CIN 8 Great Americ... ND 426 105.7 33.5 105.4 128 11 3 3 410 30
06/27/16 Video View Rizzo, Anthony CHC Ohlendorf, Ross CIN 8 Great Americ... ND 446 108.0 29.5 77.5 109 7 2 2 436 30
06/28/16 Video View Hamilton, Billy CIN Lester, Jon CHC 8 Great Americ... PL/L 372 99.8 31.3 127.7 82 8 1 1 362 30
07/24/16 Video View Tomas, Yasmany ARI Smith, Josh CIN 8 Great Americ... PL 382 103.0 27.9 120.9 75 0 3 1 378 30
08/02/16 Video View Moss, Brandon STL Wood, Blake CIN 8 Great Americ... JE 413 106.1 21.4 86.4 65 0 0 0 413 14
08/02/16 Video View Pham, Tommy STL Wood, Blake CIN 8 Great Americ... PL 427 105.7 25.6 82.0 87 0 1 1 425 29
08/16/16 Video View Yelich, Christian MIA Iglesias, Raisel CIN 8 Great Americ... PL 418 107.0 21.6 94.6 69 0 0 0 418 25
08/20/16 Video View Schebler, Scott CIN Howell, J.P. LAD 8 Great Americ... JE 419 108.6 19.9 87.6 62 0 0 0 419 21
04/07/16 Video View Bruce, Jay CIN Oberholtzer, Brett PHI 7 Great Americ... JE 413 101.3 27.7 92.9 92 4 -3 1 411 18
04/09/16 Video View Suarez, Eugenio CIN Lobstein, Kyle PIT 7 Great Americ... PL 422 106.1 23.1 93.9 74 0 -2 0 423 25
04/21/16 Video View Bryant, Kris CHC Hayes, Drew CIN 7 Great Americ... JE 417 102.3 30.4 90.7 114 0 -1 2 417 26
04/23/16 Video View Votto, Joey CIN Ramirez, Neil CHC 7 Great Americ... PL 408 103.3 33.1 80.2 129 0 -3 2 409 29
05/02/16 Video View Crawford, Brandon SF Hayes, Drew CIN 7 Great Americ... JE 398 100.6 26.0 82.5 79 1 0 1 397 11
05/09/16 Video View Barnhart, Tucker CIN Niese, Jonathon PIT 7 Great Americ... JE 363 100.0 25.9 113.1 68 -1 0 1 364 13
05/11/16 Video View Kang, Jung Ho PIT Simon, Alfredo CIN 7 Great Americ... PL 367 96.7 32.3 111.7 95 0 1 1 364 18
06/03/16 Video View Werth, Jayson WSH Finnegan, Brandon CIN 7 Great Americ... PL 366 99.4 29.2 60.5 78 -1 1 1 365 27
06/03/16 Video View Cozart, Zack CIN Petit, Yusmeiro WSH 7 Great Americ... PL 411 103.1 28.9 103.1 97 0 1 1 409 30
06/05/16 Video View Bruce, Jay CIN Rivero, Felipe WSH 7 Great Americ... PL 421 103.8 28.3 81.6 100 -1 2 1 419 29
06/07/16 Video View Hamilton, Billy CIN Leake, Mike STL 7 Great Americ... PL 401 100.1 29.4 81.2 98 1 0 1 399 21
06/08/16 Video View Moss, Brandon STL Smith, Josh CIN 7 Great Americ... JE 358 107.6 20.9 61.7 47 0 0 1 358 9
06/24/16 Video View Upton Jr., Melvin SD Lorenzen, Michael CIN 7 Great Americ... PL 384 103.0 25.4 69.6 69 0 1 0 383 26
07/19/16 Video View Beckham, Gordon ATL Lorenzen, Michael CIN 7 Great Americ... JE 396 101.4 26.1 100.9 85 -3 1 0 397 20
07/20/16 Video View Votto, Joey CIN Krol, Ian ATL 7 Great Americ... JE 392 100.4 25.3 80.9 74 0 0 0 391 9
08/02/16 Video View Gyorko, Jedd STL Ohlendorf, Ross CIN 7 Great Americ... JE 408 103.8 22.8 86.4 70 0 0 0 407 9
08/02/16 Video View Duvall, Adam CIN Siegrist, Kevin STL 7 Great Americ... ND 392 104.0 35.5 114.1 128 0 4 3 385 30
08/19/16 Video View Lorenzen, Michael CIN Baez, Pedro LAD 7 Great Americ... PL 403 103.8 24.5 78.7 76 0 0 0 402 26
08/22/16 Video View Gonzalez, Adrian LAD Wood, Blake CIN 7 Great Americ... PL 358 96.8 34.9 66.7 110 -5 2 2 358 23
08/22/16 Video View Grandal, Yasmani LAD Wood, Blake CIN 7 Great Americ... PL 424 103.5 28.5 86.4 106 -2 1 1 423 28
04/10/16 Video View Suarez, Eugenio CIN Locke, Jeff PIT 6 Great Americ... JE 376 98.1 27.9 76.5 85 -2 -1 1 379 14
04/21/16 Video View Ross, David CHC Melville, Tim CIN 6 Great Americ... PL 398 101.9 24.8 81.0 74 0 -1 0 397 18
04/21/16 Video View Rizzo, Anthony CHC Melville, Tim CIN 6 Great Americ... PL 397 107.0 22.6 74.8 63 0 -1 0 397 25
04/22/16 Video View Cozart, Zack CIN Lester, Jon CHC 6 Great Americ... PL 406 101.8 29.3 100.6 101 0 -1 1 406 30
04/23/16 Video View Suarez, Eugenio CIN Lackey, John CHC 6 Great Americ... PL 420 106.4 21.9 87.3 71 0 0 0 420 24
04/23/16 Video View Duvall, Adam CIN Cahill, Trevor CHC 6 Great Americ... PL 395 101.6 27.0 104.0 83 0 -1 1 395 28
04/23/16 Video View Schebler, Scott CIN Cahill, Trevor CHC 6 Great Americ... JE 361 97.5 36.7 73.3 127 0 -2 2 360 12
04/24/16 Video View La Stella, Tommy CHC Hayes, Drew CIN 6 Great Americ... PL 376 101.4 36.8 71.2 136 0 2 3 372 25
05/04/16 Video View Duvall, Adam CIN Peavy, Jake SF 6 Great Americ... ND 391 109.0 24.5 120.9 65 0 -2 1 392 30
05/07/16 Video View Lucroy, Jonathan MIL Finnegan, Brandon CIN 6 Great Americ... PL 417 107.8 22.3 98.5 67 0 0 1 418 29
05/07/16 Video View Hill, Aaron MIL Finnegan, Brandon CIN 6 Great Americ... PL 382 101.3 33.8 115.2 110 1 0 2 379 30
05/09/16 Video View Votto, Joey CIN Niese, Jonathon PIT 6 Great Americ... PL 351 97.4 34.4 117.4 106 -8 -2 2 359 30
05/18/16 Video View Suarez, Eugenio CIN McAllister, Zach CLE 6 Great Americ... JE 384 104.5 23.1 73.6 60 0 0 0 383 19
06/04/16 Video View Votto, Joey CIN Strasburg, Stephen WSH 6 Great Americ... PL 405 104.1 24.8 78.4 78 0 0 0 405 28
06/23/16 Video View Norris, Derek SD Ramirez, J.C. CIN 6 Great Americ... JE 355 95.7 30.8 116.2 82 0 1 1 353 11
06/24/16 Video View Rosales, Adam SD Iglesias, Raisel CIN 6 Great Americ... JE 410 106.5 21.2 95.6 64 0 0 0 409 16
07/15/16 Video View Gennett, Scooter MIL DeSclafani, Anthony CIN 6 Great Americ... PL 392 106.3 23.6 70.7 67 -1 0 0 392 29
07/18/16 Video View Garcia, Adonis ATL Finnegan, Brandon CIN 6 Great Americ... JE 380 99.2 26.7 75.0 76 0 0 1 378 12
07/20/16 Video View Barnhart, Tucker CIN Harrell, Lucas ATL 6 Great Americ... ND 406 105.0 28.3 67.9 88 0 2 1 403 30
07/22/16 Video View Barnhart, Tucker CIN Delgado, Randall ARI 6 Great Americ... PL 359 97.4 29.9 61.6 79 -1 1 1 358 22
08/15/16 Video View Ozuna, Marcell MIA Finnegan, Brandon CIN 6 Great Americ... PL 416 101.9 30.3 85.2 111 0 1 2 413 23
08/18/16 N/A View Ozuna, Marcell MIA Straily, Dan CIN 6 Great Americ... JE 363 99.3 27.0 115.9 69 0 1 1 361 13
04/07/16 Video View Howard, Ryan PHI Stephenson, Robert CIN 5 Great Americ... PL 424 104.1 26.9 88.4 102 1 -3 1 426 27
05/03/16 Video View Duvall, Adam CIN Samardzija, Jeff SF 5 Great Americ... JE 400 100.5 28.0 98.3 93 0 -1 1 400 20
05/06/16 Video View Presley, Alex MIL Adleman, Tim CIN 5 Great Americ... PL 389 98.2 33.3 79.8 114 4 0 2 383 10
05/08/16 Video View Perez, Hernan MIL Delabar, Steve CIN 5 Great Americ... PL 374 99.2 30.1 111.9 89 -1 -2 1 376 28
05/11/16 Video View Freese, David PIT Simon, Alfredo CIN 5 Great Americ... PL 404 101.1 30.7 78.6 106 0 2 1 401 28
05/19/16 Video View Santana, Carlos CLE Cotham, Caleb CIN 5 Great Americ... ND 394 104.9 26.8 65.7 77 0 0 1 394 30
06/08/16 Video View Moss, Brandon STL Simon, Alfredo CIN 5 Great Americ... ND 435 108.4 30.8 75.5 122 0 0 2 432 30
06/08/16 Video View Barnhart, Tucker CIN Garcia, Jaime STL 5 Great Americ... PL 392 102.3 29.3 112.1 89 0 0 1 391 30
06/25/16 Video View Pomeranz, Drew SD Finnegan, Brandon CIN 5 Great Americ... PL 392 101.4 26.4 74.7 77 1 1 1 389 24
06/27/16 Video View Arrieta, Jake CHC Lorenzen, Michael CIN 5 Great Americ... JE 386 104.3 22.3 77.5 59 0 1 0 386 5
06/27/16 Video View Votto, Joey CIN Arrieta, Jake CHC 5 Great Americ... PL 406 108.6 22.0 76.3 63 0 1 0 405 29
07/24/16 Video View Goldschmidt, Paul ARI Finnegan, Brandon CIN 5 Great Americ... PL 398 103.6 25.3 106.1 71 1 2 1 394 30
08/02/16 Video View Barnhart, Tucker CIN Wainwright, Adam STL 5 Great Americ... PL 404 99.0 31.0 84.1 104 4 2 1 396 9
08/03/16 Video View Piscotty, Stephen STL Reed, Cody CIN 5 Great Americ... PL 427 106.3 25.3 99.3 85 0 2 1 425 30
08/22/16 Video View Toles, Andrew LAD Smith, Josh CIN 5 Great Americ... PL 361 99.9 28.2 56.9 71 0 1 1 360 28
08/22/16 Video View Segedin, Rob LAD Smith, Josh CIN 5 Great Americ... PL 376 97.7 33.4 107.1 108 0 2 2 373 17
08/22/16 Video View Seager, Corey LAD Smith, Josh CIN 5 Great Americ... PL 417 103.4 31.3 79.9 116 0 2 2 414 29
08/22/16 Video View Gonzalez, Adrian LAD Diaz, Jumbo CIN 5 Great Americ... JE 352 94.4 34.2 113.4 99 0 1 2 349 6
08/24/16 Video View Darvish, Yu TEX Adleman, Tim CIN 5 Great Americ... JE 412 105.2 21.9 86.9 67 0 0 0 411 12
08/24/16 Video View Desmond, Ian TEX Adleman, Tim CIN 5 Great Americ... JE 379 109.6 21.1 113.2 52 0 1 0 378 19
04/07/16 Video View Hunter, Cedric PHI Stephenson, Robert CIN 4 Great Americ... PL 393 103.7 27.8 68.9 87 -1 -3 1 397 30
04/07/16 Video View Bruce, Jay CIN Morton, Charlie PHI 4 Great Americ... ND 406 104.0 31.2 68.6 104 7 -5 1 401 30
04/07/16 Video View Suarez, Eugenio CIN Stumpf, Daniel PHI 4 Great Americ... PL 370 99.6 35.4 108.2 125 1 -6 2 373 29
04/22/16 Video View Rizzo, Anthony CHC Moscot, Jon CIN 4 Great Americ... PL 401 105.2 25.0 73.0 74 0 0 1 400 29
05/04/16 Video View Gillaspie, Conor SF Straily, Dan CIN 4 Great Americ... JE 398 106.8 20.8 80.9 60 1 0 0 397 10
05/07/16 Video View Braun, Ryan MIL Finnegan, Brandon CIN 4 Great Americ... PL 388 102.4 32.5 117.5 102 1 1 2 385 30
05/08/16 Video View Duvall, Adam CIN Guerra, Junior MIL 4 Great Americ... PL 406 102.3 27.5 80.1 93 -1 -1 1 408 28
05/11/16 Video View McCutchen, Andrew PIT Simon, Alfredo CIN 4 Great Americ... JE 372 102.1 24.2 69.7 61 1 0 0 370 9
05/11/16 Video View Bruce, Jay CIN Nicasio, Juan PIT 4 Great Americ... PL 361 97.3 32.7 120.1 91 0 1 1 358 29
05/18/16 Video View Bruce, Jay CIN Clevinger, Mike CLE 4 Great Americ... JE/L 357 92.9 34.2 69.1 94 12 0 2 344 1
05/19/16 Video View Santana, Carlos CLE Adleman, Tim CIN 4 Great Americ... PL 419 108.1 23.3 78.3 73 0 0 1 418 29
05/19/16 Video View Votto, Joey CIN Tomlin, Josh CLE 4 Great Americ... JE 408 106.7 20.4 94.6 62 2 0 0 406 10
05/21/16 Video View Gutierrez, Franklin SEA Lamb, John CIN 4 Great Americ... ND 455 113.1 27.6 109.9 100 7 -2 1 448 30
05/22/16 Video View Duvall, Adam CIN Miley, Wade SEA 4 Great Americ... ND 450 110.5 25.2 100.6 91 2 1 1 447 30
06/05/16 Video View Murphy, Daniel WSH Moscot, Jon CIN 4 Great Americ... ND 420 109.4 31.1 66.8 117 -9 2 2 424 30
06/05/16 Video View Ramos, Wilson WSH Moscot, Jon CIN 4 Great Americ... JE/L 347 93.1 38.1 64.1 111 14 2 2 330 0
06/07/16 Video View Duvall, Adam CIN Leake, Mike STL 4 Great Americ... ND 425 108.1 25.6 106.5 79 4 0 1 420 30
06/08/16 Video View Cozart, Zack CIN Garcia, Jaime STL 4 Great Americ... JE 388 99.8 26.6 102.0 79 0 0 0 387 16
06/23/16 Video View Kemp, Matt SD Lamb, John CIN 4 Great Americ... JE 360 102.3 25.9 125.7 62 0 1 1 359 29
06/26/16 Video View Bruce, Jay CIN Perdomo, Luis SD 4 Great Americ... PL 391 101.2 29.8 73.6 100 -10 3 1 394 30
06/27/16 Video View Bryant, Kris CHC Straily, Dan CIN 4 Great Americ... ND 432 111.2 29.2 115.8 102 -5 4 2 430 30
06/29/16 Video View Almora Jr., Albert CHC Reed, Cody CIN 4 Great Americ... PL 404 103.4 23.6 83.6 77 -1 0 0 405 19
06/29/16 Video View Russell, Addison CHC Reed, Cody CIN 4 Great Americ... JE 401 101.5 28.0 98.7 100 -6 0 1 406 25
06/29/16 Video View Duvall, Adam CIN Hendricks, Kyle CHC 4 Great Americ... PL 391 105.3 24.9 110.4 73 -3 0 0 392 30
07/18/16 Video View Cozart, Zack CIN Wisler, Matt ATL 4 Great Americ... JE 363 96.2 30.0 112.7 80 2 2 1 359 11
07/18/16 Video View Votto, Joey CIN Wisler, Matt ATL 4 Great Americ... PL 404 104.0 26.9 72.3 83 1 1 1 401 30
07/18/16 Video View Suarez, Eugenio CIN Wisler, Matt ATL 4 Great Americ... ND 392 103.6 31.1 122.6 91 3 2 1 386 30
08/15/16 Video View Johnson, Chris MIA Finnegan, Brandon CIN 4 Great Americ... JE 338 93.0 33.6 58.5 87 0 1 1 336 7
08/17/16 Video View Ozuna, Marcell MIA Bailey, Homer CIN 4 Great Americ... JE 404 101.7 26.0 98.4 80 1 1 1 402 19
08/20/16 Video View Peraza, Jose CIN Dayton, Grant LAD 4 Great Americ... PL 401 102.6 26.5 99.9 92 -7 0 1 406 30
04/24/16 Video View Rizzo, Anthony CHC Simon, Alfredo CIN 3 Great Americ... JE 416 102.2 26.8 92.1 91 0 0 1 415 20
05/02/16 Video View Votto, Joey CIN Cueto, Johnny SF 3 Great Americ... PL 425 103.8 26.2 87.9 89 2 -1 0 423 27
05/06/16 Video View Phillips, Brandon CIN Cravy, Tyler MIL 3 Great Americ... PL 374 101.8 28.4 122.1 74 2 0 1 371 30
05/07/16 Video View Phillips, Brandon CIN Nelson, Jimmy MIL 3 Great Americ... JE/L 371 97.1 33.9 102.8 115 -5 1 2 373 13
05/18/16 Video View Davis, Rajai CLE Finnegan, Brandon CIN 3 Great Americ... PL 406 100.5 32.6 102.7 110 12 -1 2 393 24
05/20/16 Video View Cozart, Zack CIN Iwakuma, Hisashi SEA 3 Great Americ... JE 413 104.7 22.6 93.5 75 1 0 1 412 15
06/03/16 Video View Suarez, Eugenio CIN Gonzalez, Gio WSH 3 Great Americ... JE 358 107.4 21.8 125.5 49 0 0 0 357 17
06/10/16 Video View Vogt, Stephen OAK DeSclafani, Anthony CIN 3 Great Americ... JE 389 97.7 31.9 78.4 105 3 3 2 382 4
06/11/16 Video View Bruce, Jay CIN Mengden, Daniel OAK 3 Great Americ... ND 461 112.7 29.1 72.2 117 4 6 2 450 30
06/23/16 Video View Duvall, Adam CIN Friedrich, Christian SD 3 Great Americ... PL 355 98.1 28.5 58.9 71 0 1 1 354 22
06/27/16 Video View Bryant, Kris CHC Straily, Dan CIN 3 Great Americ... PL 407 101.2 31.4 97.6 115 -5 4 2 405 22
07/16/16 Video View Lucroy, Jonathan MIL Lamb, John CIN 3 Great Americ... PL 411 102.9 29.8 102.6 104 -2 2 1 409 30
07/23/16 Video View Bruce, Jay CIN Ray, Robbie ARI 3 Great Americ... ND 385 98.0 27.7 78.9 82 0 0 0 385 0
07/24/16 Video View Castillo, Welington ARI Finnegan, Brandon CIN 3 Great Americ... PL 373 99.3 26.7 71.3 75 -2 2 1 372 12
08/02/16 Video View Wainwright, Adam STL Straily, Dan CIN 3 Great Americ... JE 401 103.4 24.4 101.4 72 0 1 0 399 22
04/04/16 Video View Galvis, Freddy PHI Iglesias, Raisel CIN 2 Great Americ... JE 379 96.3 31.1 78.1 96 3 0 2 375 2
04/10/16 Video View Stewart, Chris PIT Melville, Tim CIN 2 Great Americ... PL 383 101.4 28.8 109.2 91 -5 -2 1 389 30
04/20/16 Video View Bruce, Jay CIN Bettis, Chad COL 2 Great Americ... PL 395 99.0 31.1 80.5 104 2 1 1 392 17
04/20/16 Video View Duvall, Adam CIN Bettis, Chad COL 2 Great Americ... ND 406 105.9 27.4 112.7 83 1 1 1 403 30
04/21/16 Video View Zobrist, Ben CHC Finnegan, Brandon CIN 2 Great Americ... JE 378 97.8 28.1 76.2 82 1 -1 1 377 5
04/23/16 Video View Russell, Addison CHC Straily, Dan CIN 2 Great Americ... ND 410 108.3 27.5 117.6 83 0 -1 1 409 30
05/04/16 Video View Belt, Brandon SF Straily, Dan CIN 2 Great Americ... PL 405 105.7 22.2 81.1 67 1 -1 0 404 19
05/04/16 Video View Phillips, Brandon CIN Peavy, Jake SF 2 Great Americ... PL 390 102.8 29.0 113.4 88 1 -2 1 391 30
05/04/16 Video View Suarez, Eugenio CIN Peavy, Jake SF 2 Great Americ... PL 415 102.9 28.6 95.0 106 -2 -2 1 418 26
05/04/16 Video View Cozart, Zack CIN Peavy, Jake SF 2 Great Americ... JE 350 97.7 29.1 122.7 73 -1 -1 1 352 26
05/05/16 Video View Phillips, Brandon CIN Anderson, Chase MIL 2 Great Americ... PL 418 103.5 26.7 95.6 93 -1 -1 1 419 27
05/21/16 Video View Martin, Leonys SEA Lamb, John CIN 2 Great Americ... JE 356 103.9 23.8 54.5 53 2 -1 0 354 16
06/04/16 Video View Bruce, Jay CIN Strasburg, Stephen WSH 2 Great Americ... JE 406 102.1 26.3 99.1 84 0 0 1 404 26
06/04/16 Video View Rendon, Anthony WSH Straily, Dan CIN 2 Great Americ... JE 372 104.9 23.8 116.4 59 0 0 1 372 22
06/12/16 Video View Semien, Marcus OAK Lamb, John CIN 2 Great Americ... JE 365 104.6 24.5 126.3 58 1 2 1 362 29
06/12/16 Video View Smolinski, Jake OAK Lamb, John CIN 2 Great Americ... JE 416 100.7 30.3 91.7 105 2 5 1 408 14
07/24/16 Video View Tomas, Yasmany ARI Finnegan, Brandon CIN 2 Great Americ... PL 379 107.9 22.7 117.5 56 1 1 0 377 26
08/15/16 Video View Schebler, Scott CIN Phelps, David MIA 2 Great Americ... PL 417 101.9 29.5 87.5 107 0 0 1 415 25
08/18/16 N/A View Cabrera, Ramon CIN Fernandez, Jose MIA 2 Great Americ... PL 392 99.5 32.2 76.9 110 -1 2 2 389 26
08/24/16 Video View Mazara, Nomar TEX Adleman, Tim CIN 2 Great Americ... JE 356 100.6 24.7 63.9 59 0 1 1 355 8
04/06/16 Video View Franco, Maikel PHI Finnegan, Brandon CIN 1 Great Americ... PL 393 104.4 23.1 77.3 68 1 0 0 393 21
04/06/16 Video View Suarez, Eugenio CIN Nola, Aaron PHI 1 Great Americ... PL 390 100.7 30.9 103.3 108 -5 -3 1 396 30
04/08/16 Video View Phillips, Brandon CIN Liriano, Francisco PIT 1 Great Americ... JE 408 103.4 23.3 92.8 73 0 -1 0 409 14
04/21/16 Video View Bryant, Kris CHC Finnegan, Brandon CIN 1 Great Americ... ND 424 111.6 28.1 121.3 89 1 -1 1 423 30
04/24/16 Video View Rizzo, Anthony CHC Simon, Alfredo CIN 1 Great Americ... JE 384 97.3 31.8 81.2 106 0 0 1 383 4
05/05/16 Video View Bruce, Jay CIN Anderson, Chase MIL 1 Great Americ... ND 436 108.5 29.8 74.2 112 4 -2 2 433 30
05/06/16 Video View Votto, Joey CIN Cravy, Tyler MIL 1 Great Americ... JE 417 102.1 26.4 89.7 85 3 0 1 413 21
05/08/16 Video View Braun, Ryan MIL Lamb, John CIN 1 Great Americ... JE 374 110.0 20.8 114.8 50 0 -1 0 374 18
05/09/16 Video View Cozart, Zack CIN Niese, Jonathon PIT 1 Great Americ... JE 380 103.6 23.3 106.9 63 1 -1 0 379 11
06/08/16 Video View Adams, Matt STL Simon, Alfredo CIN 1 Great Americ... PL 411 102.1 28.7 81.6 101 -2 1 1 410 28
06/24/16 Video View Myers, Wil SD Reed, Cody CIN 1 Great Americ... JE 422 108.0 20.9 88.0 65 -1 0 0 423 25
06/28/16 Video View Zobrist, Ben CHC Lamb, John CIN 1 Great Americ... PL 396 102.3 28.4 115.1 78 11 1 1 384 30
06/29/16 Video View Rizzo, Anthony CHC Reed, Cody CIN 1 Great Americ... ITP/L 351 95.2 22.6 96.9 59 3 0 0 348 0
07/16/16 Video View Perez, Hernan MIL Lamb, John CIN 1 Great Americ... JE 378 103.9 23.4 109.2 60 1 1 1 376 12
07/19/16 Video View Bruce, Jay CIN Jenkins, Tyrell ATL 1 Great Americ... JE 403 101.2 25.7 97.8 74 2 2 0 399 13
07/20/16 Video View Freeman, Freddie ATL DeSclafani, Anthony CIN 1 Great Americ... PL 381 100.2 30.9 114.5 92 0 2 1 379 30
07/22/16 Video View Segura, Jean ARI Straily, Dan CIN 1 Great Americ... PL 426 105.8 23.4 87.6 81 0 1 0 424 27
07/22/16 Video View Votto, Joey CIN Bradley, Archie ARI 1 Great Americ... PL 394 101.7 29.7 109.1 94 -2 2 1 393 30
08/16/16 Video View Barnhart, Tucker CIN Urena, Jose MIA 1 Great Americ... PL 382 98.8 29.1 76.4 95 -5 1 1 385 18
08/19/16 Video View Votto, Joey CIN Norris, Bud LAD 1 Great Americ... JE/L 408 99.6 32.5 92.4 115 6 3 2 398 3
08/20/16 Video View Duvall, Adam CIN Anderson, Brett LAD 1 Great Americ... JE 399 102.0 24.6 97.7 80 -2 0 0 399 12
08/21/16 Video View Utley, Chase LAD Desclafani, Anthony CIN 1 Great Americ... ND 403 105.0 28.1 64.3 81 5 2 1 396 30
08/22/16 Video View Gonzalez, Adrian LAD Bailey, Homer CIN 1 Great Americ... ND 403 106.2 26.8 65.8 79 0 1 1 401 30


About HitTracker | Contact Us
© 2006-2016 HitTrackerOnline